Time;durP1;ratioP1;P1;durP2;ratioP2;P2;SDS_P1;SDS_P2;PMS_P1;PMS_P2;Temp;Humidity;BMP_temperature;BMP_pressure;BME280_temperature;BME280_humidity;BME280_pressure;Samples;Min_cycle;Max_cycle;Signal;HPM_P1;HPM_P2
2023/07/04 00:01:04;;;;;;;6.57;2.80;;;19.00;84.40;;;;;;4922667;29;20642;-63
2023/07/04 00:03:31;;;;;;;7.80;3.05;;;19.00;84.30;;;;;;4904276;29;20103;-63
2023/07/04 00:05:58;;;;;;;5.30;2.60;;;19.00;84.60;;;;;;4920999;29;20058;-63
2023/07/04 00:08:26;;;;;;;5.47;2.90;;;19.00;84.10;;;;;;4919107;29;20070;-63
2023/07/04 00:10:56;;;;;;;11.65;3.35;;;19.00;84.00;;;;;;4922166;29;20103;-63
2023/07/04 00:13:22;;;;;;;11.40;3.38;;;19.00;84.10;;;;;;4908979;29;20047;-63
2023/07/04 00:15:50;;;;;;;6.88;2.65;;;19.00;84.60;;;;;;4923982;29;20120;-63
2023/07/04 00:18:20;;;;;;;8.75;3.22;;;19.00;85.20;;;;;;4923529;29;20095;-63
2023/07/04 00:20:54;;;;;;;8.27;3.60;;;19.00;84.80;;;;;;4921868;29;20059;-63
2023/07/04 00:23:25;;;;;;;11.88;3.00;;;19.00;83.40;;;;;;4920054;29;20179;-63
2023/07/04 00:25:52;;;;;;;12.55;3.50;;;19.00;82.90;;;;;;4918444;29;20043;-63
2023/07/04 00:28:20;;;;;;;8.90;3.60;;;19.00;83.30;;;;;;4918973;29;20076;-63
2023/07/04 00:30:46;;;;;;;8.15;3.25;;;19.00;83.00;;;;;;4908514;29;20047;-63
2023/07/04 00:33:13;;;;;;;8.70;2.90;;;19.10;82.50;;;;;;4924031;29;20062;-63
2023/07/04 00:35:40;;;;;;;8.52;3.20;;;19.00;82.40;;;;;;4906544;29;20072;-63
2023/07/04 00:38:06;;;;;;;8.43;3.20;;;19.00;82.40;;;;;;4921796;29;20385;-63
2023/07/04 00:40:32;;;;;;;10.75;3.58;;;19.10;82.40;;;;;;4917357;29;20452;-64
2023/07/04 00:43:03;;;;;;;9.63;3.28;;;19.10;81.90;;;;;;4903230;29;20027;-64
2023/07/04 00:45:33;;;;;;;7.97;3.00;;;19.10;82.20;;;;;;4916191;29;20485;-63
2023/07/04 00:48:03;;;;;;;9.80;3.63;;;19.10;81.60;;;;;;4923233;29;20134;-63
2023/07/04 00:50:32;;;;;;;11.85;3.33;;;19.10;82.20;;;;;;4921275;29;20399;-63
2023/07/04 00:53:04;;;;;;;7.05;2.88;;;19.10;81.60;;;;;;4921970;29;20039;-64
2023/07/04 00:55:33;;;;;;;9.93;3.17;;;19.20;81.50;;;;;;4907480;29;20342;-64
2023/07/04 00:58:04;;;;;;;9.90;3.33;;;19.10;81.90;;;;;;4920291;29;20122;-64
2023/07/04 01:00:31;;;;;;;8.13;3.33;;;19.20;81.50;;;;;;4900237;29;20058;-64
2023/07/04 01:03:05;;;;;;;8.27;3.38;;;19.20;81.10;;;;;;4917184;29;21415;-64
2023/07/04 01:05:40;;;;;;;7.30;3.20;;;19.20;81.60;;;;;;4922273;29;20036;-63
2023/07/04 01:08:12;;;;;;;8.85;3.25;;;19.20;82.20;;;;;;4904299;29;20110;-63
2023/07/04 01:10:44;;;;;;;10.13;3.25;;;19.20;82.00;;;;;;4921389;29;20035;-64
2023/07/04 01:13:33;;;;;;;8.50;3.65;;;19.20;82.10;;;;;;4921606;29;20519;-63
2023/07/04 01:16:01;;;;;;;10.63;3.08;;;19.30;81.20;;;;;;4920191;29;20039;-64
2023/07/04 01:18:27;;;;;;;9.93;3.55;;;19.20;82.20;;;;;;4873509;29;1312418;-63
2023/07/04 01:20:53;;;;;;;9.93;3.35;;;19.30;81.90;;;;;;4917620;29;20096;-64
2023/07/04 01:23:38;;;;;;;7.72;3.22;;;19.30;81.70;;;;;;4925293;29;20052;-63
2023/07/04 01:26:25;;;;;;;7.18;3.15;;;19.30;81.30;;;;;;4925386;29;20035;-63
2023/07/04 01:28:53;;;;;;;6.97;2.90;;;19.30;81.30;;;;;;4920180;29;20076;-64
2023/07/04 01:31:27;;;;;;;9.32;3.72;;;19.20;82.10;;;;;;4902997;29;20055;-64
2023/07/04 01:33:54;;;;;;;6.90;3.33;;;19.20;82.60;;;;;;4904413;29;20111;-64
2023/07/04 01:36:26;;;;;;;6.68;2.83;;;19.30;82.50;;;;;;4907104;29;20035;-64
2023/07/04 01:38:52;;;;;;;6.28;3.05;;;19.30;82.90;;;;;;4917223;29;20595;-64
2023/07/04 01:41:19;;;;;;;6.68;3.50;;;19.30;82.70;;;;;;4908943;29;20032;-64
2023/07/04 01:43:52;;;;;;;6.63;3.03;;;19.30;82.70;;;;;;4921314;29;20032;-64
2023/07/04 01:46:18;;;;;;;9.00;3.15;;;19.30;82.60;;;;;;4902719;29;20047;-63
2023/07/04 01:48:44;;;;;;;7.40;3.33;;;19.30;83.30;;;;;;4921114;29;20527;-64
2023/07/04 01:51:10;;;;;;;6.32;3.00;;;19.30;83.10;;;;;;4900031;29;20028;-64
2023/07/04 01:53:36;;;;;;;8.18;3.40;;;19.30;82.90;;;;;;4901616;29;20044;-64
2023/07/04 01:56:02;;;;;;;7.65;3.00;;;19.30;83.30;;;;;;4901917;29;20034;-63
2023/07/04 01:58:27;;;;;;;6.80;3.17;;;19.30;83.60;;;;;;4904892;29;20880;-63
2023/07/04 02:00:55;;;;;;;10.18;3.22;;;19.30;83.00;;;;;;4921428;29;20175;-63
2023/07/04 02:03:21;;;;;;;6.18;3.22;;;19.30;83.30;;;;;;4922881;29;20528;-63
2023/07/04 02:05:47;;;;;;;8.93;3.65;;;19.30;83.30;;;;;;4909934;29;20035;-63
2023/07/04 02:08:12;;;;;;;7.07;2.88;;;19.20;84.10;;;;;;4900543;29;20412;-64
2023/07/04 02:10:38;;;;;;;10.25;3.42;;;19.20;84.10;;;;;;4919456;29;20756;-63
2023/07/04 02:13:04;;;;;;;7.20;3.22;;;19.20;83.70;;;;;;4904732;29;20111;-63
2023/07/04 02:15:31;;;;;;;4.72;3.00;;;19.20;84.20;;;;;;4922753;29;20044;-63
2023/07/04 02:17:57;;;;;;;10.32;3.88;;;19.20;84.20;;;;;;4927900;29;20039;-64
2023/07/04 02:20:23;;;;;;;7.88;3.40;;;19.20;82.80;;;;;;4914508;29;20039;-63
2023/07/04 02:22:49;;;;;;;6.72;3.30;;;19.20;83.40;;;;;;4909918;29;20039;-63
2023/07/04 02:25:15;;;;;;;10.38;3.97;;;19.20;84.20;;;;;;4925043;29;20067;-63
2023/07/04 02:27:40;;;;;;;8.80;3.35;;;19.20;84.10;;;;;;4919550;29;20122;-63
2023/07/04 02:30:07;;;;;;;6.10;3.10;;;19.20;84.20;;;;;;4905602;29;20107;-63
2023/07/04 02:32:33;;;;;;;6.57;3.28;;;19.20;84.60;;;;;;4921719;29;20055;-66
2023/07/04 02:35:00;;;;;;;5.70;2.92;;;19.20;84.40;;;;;;4911893;29;20219;-64
2023/07/04 02:37:25;;;;;;;6.03;3.20;;;19.20;84.10;;;;;;4908507;29;20024;-64
2023/07/04 02:39:53;;;;;;;9.48;3.50;;;19.20;84.00;;;;;;4924679;29;20501;-64
2023/07/04 02:42:18;;;;;;;5.80;3.30;;;19.20;84.70;;;;;;4905006;29;20054;-64
2023/07/04 02:44:45;;;;;;;8.25;3.25;;;19.20;84.20;;;;;;4922339;29;20032;-64
2023/07/04 02:47:11;;;;;;;6.18;3.00;;;19.20;84.20;;;;;;4920902;29;20447;-64
2023/07/04 02:49:40;;;;;;;7.28;3.17;;;19.10;83.80;;;;;;4917276;29;20032;-64
2023/07/04 02:52:09;;;;;;;11.05;3.70;;;19.10;83.40;;;;;;4910285;29;20031;-64
2023/07/04 02:54:35;;;;;;;9.07;3.75;;;19.10;83.20;;;;;;4924441;29;20127;-64
2023/07/04 02:57:01;;;;;;;7.45;3.35;;;19.00;83.70;;;;;;4911336;29;20641;-64
2023/07/04 02:59:28;;;;;;;9.55;3.70;;;19.00;84.50;;;;;;4921671;29;20082;-64
2023/07/04 03:01:53;;;;;;;7.65;3.60;;;18.90;84.00;;;;;;4907231;29;20497;-64
2023/07/04 03:04:20;;;;;;;8.90;3.90;;;18.90;84.10;;;;;;4910410;29;20036;-64
2023/07/04 03:06:46;;;;;;;7.32;3.60;;;18.80;84.00;;;;;;4902860;29;20036;-64
2023/07/04 03:09:13;;;;;;;7.28;3.55;;;18.80;84.90;;;;;;4911584;29;20114;-64
2023/07/04 03:11:39;;;;;;;8.68;3.55;;;18.80;83.60;;;;;;4924663;29;20507;-64
2023/07/04 03:14:05;;;;;;;7.38;3.00;;;18.70;84.00;;;;;;4908363;29;20032;-64
2023/07/04 03:16:32;;;;;;;6.72;3.58;;;18.70;84.00;;;;;;4905783;29;20087;-63
2023/07/04 03:18:57;;;;;;;8.07;2.97;;;18.70;84.10;;;;;;4902568;29;20736;-64
2023/07/04 03:21:24;;;;;;;8.82;3.65;;;18.60;83.80;;;;;;4919975;29;20034;-63
2023/07/04 03:23:51;;;;;;;11.00;3.60;;;18.60;83.60;;;;;;4903488;29;20034;-63
2023/07/04 03:26:18;;;;;;;6.35;3.47;;;18.60;83.50;;;;;;4924363;29;20031;-63
2023/07/04 03:28:44;;;;;;;9.63;3.65;;;18.60;83.40;;;;;;4926237;29;20385;-63
2023/07/04 03:31:12;;;;;;;9.98;3.40;;;18.60;83.80;;;;;;4910346;29;20115;-63
2023/07/04 03:33:38;;;;;;;6.43;3.30;;;18.60;84.10;;;;;;4921486;29;20652;-62
2023/07/04 03:36:05;;;;;;;8.77;3.78;;;18.60;84.00;;;;;;4906400;29;20047;-64
2023/07/04 03:38:32;;;;;;;7.75;3.55;;;18.50;85.20;;;;;;4903060;29;20114;-63
2023/07/04 03:40:58;;;;;;;8.48;3.00;;;18.50;85.00;;;;;;4920780;29;20032;-63
2023/07/04 03:43:25;;;;;;;7.15;3.40;;;18.40;86.00;;;;;;4918709;29;20035;-63
2023/07/04 03:45:51;;;;;;;7.10;3.35;;;18.40;86.30;;;;;;4926181;29;20162;-65
2023/07/04 03:48:20;;;;;;;5.38;2.90;;;18.40;86.30;;;;;;4891809;29;20036;-63
2023/07/04 03:50:46;;;;;;;5.57;3.30;;;18.40;86.60;;;;;;4903134;29;20040;-63
2023/07/04 03:53:12;;;;;;;9.80;3.72;;;18.40;87.20;;;;;;4905400;29;20040;-64
2023/07/04 03:55:38;;;;;;;8.90;3.85;;;18.30;87.40;;;;;;4919138;29;20039;-64
2023/07/04 03:58:05;;;;;;;7.75;3.95;;;18.30;87.10;;;;;;4920611;29;20528;-64
2023/07/04 04:00:31;;;;;;;11.52;3.72;;;18.30;87.40;;;;;;4907455;29;20035;-64
2023/07/04 04:02:58;;;;;;;10.25;3.65;;;18.30;86.50;;;;;;4921412;29;20032;-64
2023/07/04 04:05:25;;;;;;;9.13;3.75;;;18.30;86.30;;;;;;4925036;29;20042;-64
2023/07/04 04:07:51;;;;;;;11.02;3.83;;;18.40;86.60;;;;;;4924116;29;20532;-63
2023/07/04 04:10:17;;;;;;;6.20;3.50;;;18.30;87.40;;;;;;4922600;29;20043;-63
2023/07/04 04:12:43;;;;;;;9.93;4.30;;;18.30;87.50;;;;;;4918715;29;20151;-63
2023/07/04 04:15:09;;;;;;;7.63;3.42;;;18.40;87.30;;;;;;4920671;29;20187;-64
2023/07/04 04:17:35;;;;;;;8.10;3.53;;;18.30;87.70;;;;;;4915866;29;20047;-64
2023/07/04 04:20:06;;;;;;;14.15;4.28;;;18.30;87.40;;;;;;4925973;29;20058;-64
2023/07/04 04:22:32;;;;;;;6.20;3.50;;;18.30;88.50;;;;;;4922077;29;20070;-64
2023/07/04 04:24:58;;;;;;;9.10;3.75;;;18.20;88.70;;;;;;4924437;29;20020;-64
2023/07/04 04:27:30;;;;;;;7.63;3.75;;;18.20;89.40;;;;;;4922190;29;20050;-64
2023/07/04 04:29:57;;;;;;;11.07;3.83;;;18.30;89.00;;;;;;4920673;29;20048;-64
2023/07/04 04:32:22;;;;;;;7.68;3.60;;;18.40;88.40;;;;;;4921454;29;20463;-64
2023/07/04 04:34:49;;;;;;;8.63;3.78;;;18.40;87.90;;;;;;4918021;29;20039;-64
2023/07/04 04:37:16;;;;;;;10.55;3.75;;;18.50;88.40;;;;;;4925652;29;20036;-64
2023/07/04 04:39:43;;;;;;;8.82;3.85;;;18.60;88.00;;;;;;4923971;29;20031;-64
2023/07/04 04:42:14;;;;;;;7.30;3.13;;;18.70;86.70;;;;;;4906344;29;20055;-64
2023/07/04 04:44:41;;;;;;;9.57;3.53;;;18.70;86.40;;;;;;4921076;29;20123;-64
2023/07/04 04:47:07;;;;;;;5.32;2.75;;;18.80;86.90;;;;;;4921489;29;20031;-64
2023/07/04 04:49:33;;;;;;;6.53;3.63;;;18.80;86.60;;;;;;4918592;29;20036;-64
2023/07/04 04:51:59;;;;;;;7.93;3.53;;;18.90;87.00;;;;;;4918510;29;20035;-64
2023/07/04 04:54:25;;;;;;;6.90;3.35;;;18.90;86.20;;;;;;4918697;29;20045;-64
2023/07/04 04:56:51;;;;;;;9.90;3.42;;;19.00;85.80;;;;;;4924479;29;20052;-64
2023/07/04 04:59:17;;;;;;;11.98;3.42;;;19.00;86.30;;;;;;4923846;29;20787;-64
2023/07/04 05:01:45;;;;;;;11.25;3.80;;;19.00;85.40;;;;;;4920501;29;20032;-64
2023/07/04 05:04:11;;;;;;;9.23;3.10;;;19.10;84.90;;;;;;4904301;29;20404;-64
2023/07/04 05:06:36;;;;;;;12.77;3.75;;;19.00;85.20;;;;;;4917687;29;20036;-64
2023/07/04 05:09:04;;;;;;;7.03;3.67;;;19.10;85.50;;;;;;4919003;29;20872;-64
2023/07/04 05:11:32;;;;;;;7.50;3.22;;;19.00;85.90;;;;;;4915631;29;20074;-64
2023/07/04 05:13:58;;;;;;;6.32;3.20;;;19.00;85.70;;;;;;4923814;29;20536;-64
2023/07/04 05:16:23;;;;;;;6.85;3.20;;;19.00;86.10;;;;;;4922887;29;20135;-64
2023/07/04 05:18:51;;;;;;;7.45;3.60;;;19.00;86.60;;;;;;4922475;29;20453;-64
2023/07/04 05:21:21;;;;;;;10.52;3.45;;;19.00;88.50;;;;;;4921807;29;20032;-65
2023/07/04 05:23:48;;;;;;;6.22;2.90;;;19.00;89.00;;;;;;4918446;29;20032;-64
2023/07/04 05:26:17;;;;;;;9.23;3.15;;;19.20;89.20;;;;;;4922141;29;20047;-64
2023/07/04 05:28:44;;;;;;;7.15;3.22;;;19.30;88.20;;;;;;4915939;29;20420;-64
2023/07/04 05:31:12;;;;;;;7.63;3.33;;;19.50;87.90;;;;;;4924477;29;20393;-64
2023/07/04 05:33:39;;;;;;;6.70;3.53;;;19.60;86.20;;;;;;4922877;29;20035;-65
2023/07/04 05:36:22;;;;;;;8.00;3.50;;;19.80;86.20;;;;;;4921512;29;20054;-64
2023/07/04 05:38:56;;;;;;;10.05;3.83;;;19.90;85.50;;;;;;4920387;29;20040;-65
2023/07/04 05:41:27;;;;;;;7.40;3.75;;;20.00;84.50;;;;;;4919418;29;20044;-65
2023/07/04 05:44:00;;;;;;;7.15;3.65;;;20.00;84.30;;;;;;4917223;29;20059;-65
2023/07/04 05:46:27;;;;;;;10.70;3.63;;;20.00;83.70;;;;;;4914642;29;20044;-65
2023/07/04 05:48:52;;;;;;;9.70;3.47;;;20.10;84.50;;;;;;4924216;29;20069;-64
2023/07/04 05:51:20;;;;;;;9.68;3.38;;;20.10;84.70;;;;;;4924664;29;20031;-65
2023/07/04 05:53:48;;;;;;;7.93;3.38;;;20.10;84.60;;;;;;4909213;29;20032;-64
2023/07/04 05:56:22;;;;;;;8.60;3.45;;;20.10;83.80;;;;;;4921123;29;20047;-64
2023/07/04 05:58:59;;;;;;;5.93;4.50;;;20.00;84.50;;;;;;4920962;29;20040;-64
2023/07/04 06:01:34;;;;;;;6.05;3.30;;;20.00;85.50;;;;;;4921083;29;20767;-64
2023/07/04 06:04:01;;;;;;;8.30;3.20;;;20.00;86.00;;;;;;4918117;29;20034;-65
2023/07/04 06:06:37;;;;;;;6.85;2.67;;;20.00;86.10;;;;;;4922406;29;20044;-64
2023/07/04 06:09:06;;;;;;;9.25;3.38;;;20.00;86.20;;;;;;4923893;29;20652;-64
2023/07/04 06:11:35;;;;;;;5.95;2.53;;;20.00;86.70;;;;;;4922107;29;20302;-64
2023/07/04 06:14:02;;;;;;;7.57;2.90;;;20.00;85.00;;;;;;4921096;29;20079;-64
2023/07/04 06:16:28;;;;;;;7.22;2.50;;;20.00;85.70;;;;;;4918704;29;20119;-65
2023/07/04 06:18:54;;;;;;;7.75;3.08;;;20.10;85.30;;;;;;4918516;29;20044;-64
2023/07/04 06:21:22;;;;;;;6.00;3.03;;;20.10;86.00;;;;;;4917375;29;20189;-64
2023/07/04 06:23:49;;;;;;;7.07;3.10;;;20.10;86.80;;;;;;4922567;29;20082;-65
2023/07/04 06:26:15;;;;;;;7.55;2.95;;;20.10;87.10;;;;;;4925521;29;20082;-64
2023/07/04 06:28:42;;;;;;;13.70;3.63;;;20.20;86.40;;;;;;4922330;29;20063;-64
2023/07/04 06:31:10;;;;;;;13.02;3.10;;;20.30;85.90;;;;;;4904799;29;20032;-65
2023/07/04 06:33:36;;;;;;;7.97;2.88;;;20.30;85.70;;;;;;4918278;29;20043;-64
2023/07/04 06:36:03;;;;;;;7.95;3.22;;;20.30;85.40;;;;;;4920737;29;20100;-64
2023/07/04 06:38:29;;;;;;;11.15;3.22;;;20.30;83.80;;;;;;4918875;29;20040;-64
2023/07/04 06:40:56;;;;;;;8.20;3.40;;;20.20;84.60;;;;;;4920628;29;20038;-65
2023/07/04 06:43:22;;;;;;;9.90;3.95;;;20.30;83.20;;;;;;4924106;29;20027;-64
2023/07/04 06:45:48;;;;;;;8.88;3.60;;;20.20;84.00;;;;;;4921915;29;20493;-64
2023/07/04 06:48:14;;;;;;;8.77;3.95;;;20.20;84.40;;;;;;4922349;29;20047;-65
2023/07/04 06:50:40;;;;;;;7.70;3.42;;;20.20;84.20;;;;;;4919099;29;20144;-64
2023/07/04 06:53:06;;;;;;;8.27;3.20;;;20.30;84.40;;;;;;4919348;29;20074;-64
2023/07/04 06:55:32;;;;;;;5.95;2.88;;;20.30;84.20;;;;;;4918141;29;20083;-65
2023/07/04 06:57:57;;;;;;;7.72;3.33;;;20.40;84.60;;;;;;4917802;29;20707;-64
2023/07/04 07:00:23;;;;;;;7.72;2.70;;;20.50;84.60;;;;;;4925145;29;20571;-64
2023/07/04 07:02:52;;;;;;;7.82;2.58;;;20.50;83.80;;;;;;4925781;29;20071;-64
2023/07/04 07:05:18;;;;;;;8.88;2.22;;;20.60;81.90;;;;;;4926470;29;20032;-64
2023/07/04 07:07:46;;;;;;;8.23;3.20;;;20.50;80.90;;;;;;4922750;29;20087;-65
2023/07/04 07:10:12;;;;;;;4.88;2.10;;;20.40;81.60;;;;;;4923847;29;20811;-64
2023/07/04 07:12:38;;;;;;;7.93;2.30;;;20.40;80.60;;;;;;4917739;29;20127;-65
2023/07/04 07:15:04;;;;;;;4.72;2.20;;;20.40;81.00;;;;;;4911127;29;20455;-65
2023/07/04 07:17:32;;;;;;;4.35;2.10;;;20.50;81.60;;;;;;4924304;29;20040;-64
2023/07/04 07:19:58;;;;;;;5.28;1.95;;;20.50;82.60;;;;;;4926245;29;20447;-64
2023/07/04 07:22:24;;;;;;;6.70;2.45;;;20.70;80.40;;;;;;4921808;29;20036;-64
2023/07/04 07:24:50;;;;;;;8.40;1.90;;;20.70;80.00;;;;;;4924581;29;20020;-64
2023/07/04 07:27:16;;;;;;;5.32;1.98;;;20.90;80.30;;;;;;4922489;29;20066;-64
2023/07/04 07:29:42;;;;;;;4.50;2.35;;;21.10;79.50;;;;;;4919297;29;20040;-64
2023/07/04 07:32:08;;;;;;;5.18;1.50;;;21.10;78.10;;;;;;4924356;29;20030;-65
2023/07/04 07:34:34;;;;;;;8.50;2.15;;;21.10;77.00;;;;;;4924606;29;20126;-64
2023/07/04 07:37:00;;;;;;;4.75;2.10;;;21.10;76.60;;;;;;4926453;29;20480;-65
2023/07/04 07:39:26;;;;;;;7.40;2.05;;;21.10;77.50;;;;;;4923486;29;20048;-65
2023/07/04 07:41:51;;;;;;;8.60;2.25;;;21.20;78.40;;;;;;4922978;29;20036;-64
2023/07/04 07:44:17;;;;;;;5.22;2.25;;;21.30;78.50;;;;;;4922942;29;20111;-65
2023/07/04 07:46:44;;;;;;;6.93;2.30;;;21.40;78.30;;;;;;4919844;29;20043;-65
2023/07/04 07:49:11;;;;;;;7.05;2.47;;;21.60;78.70;;;;;;4921299;29;20045;-65
2023/07/04 07:51:37;;;;;;;6.43;2.30;;;21.60;76.70;;;;;;4920324;29;20032;-65
2023/07/04 07:54:07;;;;;;;4.68;1.73;;;21.70;77.20;;;;;;4926806;29;20821;-65
2023/07/04 07:56:39;;;;;;;2.97;1.55;;;21.70;76.60;;;;;;4924755;29;20091;-65
2023/07/04 07:59:08;;;;;;;8.93;2.22;;;21.80;76.90;;;;;;4924254;29;20411;-65
2023/07/04 08:01:34;;;;;;;5.30;1.85;;;21.80;76.40;;;;;;4921575;29;20040;-65
2023/07/04 08:04:01;;;;;;;7.25;1.77;;;21.80;75.00;;;;;;4908864;29;20504;-65
2023/07/04 08:06:34;;;;;;;7.28;2.00;;;21.80;75.90;;;;;;4916953;29;20527;-65
2023/07/04 08:09:01;;;;;;;4.32;1.73;;;21.80;75.80;;;;;;4919912;29;20508;-65
2023/07/04 08:11:29;;;;;;;6.60;2.20;;;21.80;76.50;;;;;;4926309;29;20630;-65
2023/07/04 08:13:56;;;;;;;6.63;2.00;;;21.80;74.50;;;;;;4923429;29;20120;-64
2023/07/04 08:16:25;;;;;;;9.88;2.00;;;21.70;73.60;;;;;;4924489;29;20539;-64
2023/07/04 08:18:51;;;;;;;5.05;1.70;;;21.60;74.40;;;;;;4921785;29;20130;-65
2023/07/04 08:21:18;;;;;;;7.45;1.70;;;21.60;73.70;;;;;;4924452;29;20043;-65
2023/07/04 08:23:44;;;;;;;5.47;1.85;;;21.60;74.00;;;;;;4916956;29;20032;-65
2023/07/04 08:26:21;;;;;;;3.97;1.55;;;21.50;74.40;;;;;;4919350;29;20106;-64
2023/07/04 08:28:47;;;;;;;3.78;1.88;;;21.40;75.60;;;;;;4924560;29;20142;-65
2023/07/04 08:31:17;;;;;;;4.32;2.28;;;21.50;76.70;;;;;;4925250;29;20057;-64
2023/07/04 08:33:45;;;;;;;6.82;2.22;;;21.70;76.30;;;;;;4922644;29;20596;-64
2023/07/04 08:36:11;;;;;;;4.53;1.70;;;21.80;75.50;;;;;;4920859;29;20768;-65
2023/07/04 08:38:37;;;;;;;6.90;2.05;;;21.90;75.00;;;;;;4922589;29;20068;-65
2023/07/04 08:41:10;;;;;;;5.22;1.52;;;22.00;73.30;;;;;;4920903;29;20055;-64
2023/07/04 08:43:53;;;;;;;5.85;1.90;;;22.00;72.40;;;;;;4915764;29;20080;-64
2023/07/04 08:46:20;;;;;;;11.23;2.33;;;21.90;73.80;;;;;;4920780;29;20035;-64
2023/07/04 08:48:47;;;;;;;4.03;1.83;;;21.90;72.70;;;;;;4924294;29;20039;-64
2023/07/04 08:51:20;;;;;;;4.53;1.90;;;21.90;74.40;;;;;;4923869;29;20040;-64
2023/07/04 08:53:53;;;;;;;5.13;1.73;;;22.00;71.40;;;;;;4920897;29;20088;-64
2023/07/04 08:56:22;;;;;;;2.22;1.20;;;22.00;70.90;;;;;;4920539;29;20100;-64
2023/07/04 08:59:05;;;;;;;4.97;2.13;;;21.90;72.70;;;;;;4918507;29;20680;-64
2023/07/04 09:01:56;;;;;;;7.97;1.58;;;22.00;72.00;;;;;;4916519;29;20036;-64
2023/07/04 09:05:00;;;;;;;3.03;1.75;;;22.00;70.10;;;;;;4898148;29;20682;-63
2023/07/04 09:07:34;;;;;;;2.65;1.40;;;22.20;70.40;;;;;;4920627;29;20055;-63
2023/07/04 09:10:19;;;;;;;5.32;1.60;;;22.30;70.70;;;;;;4923083;29;20032;-62
2023/07/04 09:12:47;;;;;;;3.90;1.60;;;22.40;69.00;;;;;;4918858;29;20064;-63
2023/07/04 09:15:24;;;;;;;7.95;2.22;;;22.40;68.40;;;;;;4919832;29;20279;-64
2023/07/04 09:18:19;;;;;;;4.68;1.30;;;22.50;68.00;;;;;;4917314;29;20036;-64
2023/07/04 09:20:51;;;;;;;3.00;1.38;;;22.60;69.80;;;;;;4919322;29;20042;-63
2023/07/04 09:23:24;;;;;;;2.97;1.42;;;22.70;68.20;;;;;;4923833;29;20034;-63
2023/07/04 09:25:56;;;;;;;4.10;1.40;;;22.80;69.00;;;;;;4921931;29;20043;-63
2023/07/04 09:28:23;;;;;;;5.15;1.75;;;22.80;67.70;;;;;;4921128;29;20044;-63
2023/07/04 09:30:48;;;;;;;4.07;1.80;;;22.90;69.00;;;;;;4921469;29;20769;-64
2023/07/04 09:33:14;;;;;;;7.15;1.40;;;22.90;69.50;;;;;;4919566;29;20031;-63
2023/07/04 09:35:41;;;;;;;5.75;1.52;;;22.90;68.80;;;;;;4915200;29;20416;-64
2023/07/04 09:38:07;;;;;;;1.95;1.40;;;23.00;70.00;;;;;;4921306;29;20067;-63
2023/07/04 09:40:42;;;;;;;4.68;1.70;;;23.10;69.50;;;;;;4921527;29;20120;-63
2023/07/04 09:43:10;;;;;;;2.55;1.65;;;23.10;69.00;;;;;;4917817;29;20519;-63
2023/07/04 09:45:36;;;;;;;2.58;1.10;;;23.30;68.80;;;;;;4922105;29;20024;-63
2023/07/04 09:48:04;;;;;;;5.32;1.55;;;23.40;67.70;;;;;;4920544;29;20035;-63
2023/07/04 09:50:33;;;;;;;7.25;1.50;;;23.30;66.00;;;;;;4917713;29;20043;-64
2023/07/04 09:53:10;;;;;;;6.10;1.67;;;23.20;66.60;;;;;;4921184;29;20031;-64
2023/07/04 09:55:38;;;;;;;6.80;1.52;;;23.10;67.30;;;;;;4918142;29;20035;-64
2023/07/04 09:58:21;;;;;;;4.57;1.65;;;23.10;67.40;;;;;;4924448;29;20036;-64
2023/07/04 10:01:21;;;;;;;4.20;1.70;;;23.00;65.10;;;;;;4921852;29;20036;-64
2023/07/04 10:03:48;;;;;;;6.47;1.65;;;23.10;68.40;;;;;;4900393;29;20052;-64
2023/07/04 10:06:30;;;;;;;5.15;2.00;;;23.20;67.00;;;;;;4920125;29;20038;-64
2023/07/04 10:08:57;;;;;;;5.53;1.55;;;23.30;68.20;;;;;;4919332;29;20035;-64
2023/07/04 10:11:29;;;;;;;5.38;1.70;;;23.40;68.60;;;;;;4919066;29;20043;-64
2023/07/04 10:14:15;;;;;;;5.75;1.50;;;23.50;66.50;;;;;;4919725;29;20044;-64
2023/07/04 10:17:09;;;;;;;4.75;2.72;;;23.50;65.80;;;;;;4920935;29;20051;-64
2023/07/04 10:19:44;;;;;;;3.53;1.83;;;23.40;66.70;;;;;;4919813;29;20096;-64
2023/07/04 10:22:10;;;;;;;8.70;1.85;;;23.30;66.60;;;;;;4921627;29;20046;-64
2023/07/04 10:24:36;;;;;;;3.22;1.60;;;23.20;66.20;;;;;;4920254;29;20036;-64
2023/07/04 10:27:11;;;;;;;4.45;2.15;;;23.00;66.40;;;;;;4917441;29;20395;-64
2023/07/04 10:29:40;;;;;;;8.35;1.73;;;22.90;66.30;;;;;;4914253;29;20707;-64
2023/07/04 10:32:15;;;;;;;4.88;1.65;;;22.80;66.80;;;;;;4900572;29;20489;-64
2023/07/04 10:34:44;;;;;;;7.18;1.95;;;22.60;67.50;;;;;;4920634;29;20127;-64
2023/07/04 10:37:23;;;;;;;6.05;2.13;;;22.70;68.10;;;;;;4925399;29;20045;-64
2023/07/04 10:39:59;;;;;;;4.80;2.00;;;22.90;67.40;;;;;;4923176;29;20115;-64
2023/07/04 10:42:45;;;;;;;3.80;2.08;;;23.00;67.00;;;;;;4924166;29;20035;-63
2023/07/04 10:45:15;;;;;;;3.03;1.83;;;23.10;67.00;;;;;;4921923;29;20699;-64
2023/07/04 10:47:42;;;;;;;3.55;1.95;;;23.10;66.20;;;;;;4918025;29;20599;-64
2023/07/04 10:50:22;;;;;;;5.13;1.92;;;23.10;67.60;;;;;;4927530;29;20066;-64
2023/07/04 10:52:49;;;;;;;5.72;2.08;;;23.10;68.20;;;;;;4927189;29;20031;-64
2023/07/04 10:55:25;;;;;;;3.97;1.77;;;23.00;66.80;;;;;;4928255;29;20050;-64
2023/07/04 10:58:03;;;;;;;4.45;2.05;;;22.80;67.00;;;;;;4926032;29;20039;-64
2023/07/04 11:00:33;;;;;;;3.78;2.00;;;22.60;67.80;;;;;;4923609;29;20035;-64
2023/07/04 11:03:08;;;;;;;5.85;1.85;;;22.40;69.40;;;;;;4906129;29;20031;-65
2023/07/04 11:05:41;;;;;;;3.58;1.70;;;22.30;71.60;;;;;;4917306;29;20360;-63
2023/07/04 11:08:13;;;;;;;4.55;2.03;;;22.20;71.20;;;;;;4923160;29;20123;-63
2023/07/04 11:10:44;;;;;;;4.85;2.58;;;22.10;70.30;;;;;;4924218;29;20115;-63
2023/07/04 11:13:19;;;;;;;5.45;1.98;;;22.00;70.00;;;;;;4924252;29;20148;-64
2023/07/04 11:15:54;;;;;;;3.40;1.75;;;21.90;70.20;;;;;;4921075;29;20047;-63
2023/07/04 11:18:26;;;;;;;5.40;2.20;;;22.00;70.50;;;;;;4921146;29;20040;-63
2023/07/04 11:21:15;;;;;;;8.45;1.90;;;22.10;69.40;;;;;;4920313;29;20377;-63
2023/07/04 11:23:50;;;;;;;6.57;1.90;;;22.30;69.80;;;;;;4917619;29;20032;-64
2023/07/04 11:26:18;;;;;;;7.07;2.30;;;22.40;69.30;;;;;;4926675;29;20040;-64
2023/07/04 11:28:47;;;;;;;6.78;1.85;;;22.50;69.30;;;;;;4925504;29;20067;-65
2023/07/04 11:31:27;;;;;;;5.75;2.03;;;22.60;67.30;;;;;;4924784;29;20047;-64
2023/07/04 11:33:53;;;;;;;4.38;2.45;;;22.60;68.90;;;;;;4921975;29;20421;-64
2023/07/04 11:36:39;;;;;;;6.82;2.53;;;22.70;68.70;;;;;;4921764;29;20134;-65
2023/07/04 11:39:31;;;;;;;5.88;2.20;;;22.90;68.00;;;;;;4920501;29;20044;-64
2023/07/04 11:42:08;;;;;;;6.07;2.25;;;23.10;68.90;;;;;;4918454;29;20028;-63
2023/07/04 11:44:48;;;;;;;4.28;2.45;;;23.40;66.70;;;;;;4923492;29;20046;-64
2023/07/04 11:47:31;;;;;;;6.43;2.42;;;23.60;67.20;;;;;;4923301;29;20567;-64
2023/07/04 11:50:01;;;;;;;7.70;3.08;;;23.80;66.20;;;;;;4923121;29;20122;-63
2023/07/04 11:52:29;;;;;;;5.32;2.42;;;23.90;65.60;;;;;;4924144;29;20067;-64
2023/07/04 11:55:07;;;;;;;5.85;2.92;;;24.00;65.70;;;;;;4920939;29;20054;-64
2023/07/04 11:58:07;;;;;;;4.00;2.30;;;24.10;65.40;;;;;;4917114;29;20873;-64
2023/07/04 12:00:37;;;;;;;10.88;3.13;;;24.10;67.60;;;;;;4923413;29;20035;-64
2023/07/04 12:03:29;;;;;;;9.05;3.15;;;24.30;66.40;;;;;;4921536;29;20083;-64
2023/07/04 12:05:57;;;;;;;9.85;2.70;;;24.30;67.40;;;;;;4921888;29;20048;-64
2023/07/04 12:08:31;;;;;;;4.80;2.08;;;24.40;65.20;;;;;;4921858;29;20040;-64
2023/07/04 12:11:04;;;;;;;7.05;2.30;;;24.40;65.30;;;;;;4921114;29;20103;-64
2023/07/04 12:13:34;;;;;;;8.98;2.80;;;24.40;64.80;;;;;;4919250;29;20046;-64
2023/07/04 12:16:02;;;;;;;10.75;2.83;;;24.50;67.50;;;;;;4919942;29;20043;-64
2023/07/04 12:18:33;;;;;;;8.13;2.83;;;24.50;64.60;;;;;;4926224;29;20044;-64
2023/07/04 12:21:00;;;;;;;7.13;2.45;;;24.50;65.50;;;;;;4925633;29;20555;-64
2023/07/04 12:23:26;;;;;;;5.50;2.22;;;24.40;66.20;;;;;;4924294;29;20034;-63
2023/07/04 12:25:55;;;;;;;7.53;2.20;;;24.30;66.30;;;;;;4921958;29;20036;-64
2023/07/04 12:28:26;;;;;;;5.50;2.10;;;24.20;64.40;;;;;;4922200;29;20108;-64
2023/07/04 12:30:52;;;;;;;4.20;1.85;;;24.20;64.80;;;;;;4920121;29;20036;-63
2023/07/04 12:33:22;;;;;;;8.40;2.20;;;24.10;65.80;;;;;;4917198;29;20047;-63
2023/07/04 12:35:55;;;;;;;9.05;2.30;;;24.10;65.00;;;;;;4921507;29;20040;-63
2023/07/04 12:38:25;;;;;;;7.50;2.70;;;24.00;64.20;;;;;;4926137;29;20404;-63
2023/07/04 12:40:53;;;;;;;5.82;2.38;;;23.90;65.30;;;;;;4923421;29;20550;-63
2023/07/04 12:43:21;;;;;;;6.95;2.30;;;23.90;65.20;;;;;;4924564;29;20110;-63
2023/07/04 12:45:48;;;;;;;6.22;2.05;;;23.90;64.00;;;;;;4920872;29;20036;-63
2023/07/04 12:48:15;;;;;;;3.33;1.77;;;23.90;65.00;;;;;;4921537;29;20091;-64
2023/07/04 12:50:53;;;;;;;5.90;1.92;;;23.90;63.80;;;;;;4922631;29;20047;-63
2023/07/04 12:53:19;;;;;;;8.52;2.00;;;23.90;65.60;;;;;;4918459;29;20130;-63
2023/07/04 12:55:46;;;;;;;8.57;2.15;;;23.80;62.00;;;;;;4925370;29;20483;-63
2023/07/04 12:58:14;;;;;;;6.50;1.95;;;23.80;61.80;;;;;;4924164;29;20086;-63